sensor_id;sensor_type;location;lat;lon;timestamp;P1;durP1;ratioP1;P2;durP2;ratioP2
75718;SDS011;64340;48.534;-3.036;2022-10-17T00:02:22;1.10;;;0.60;;
75718;SDS011;64340;48.534;-3.036;2022-10-17T00:04:48;1.10;;;0.55;;
75718;SDS011;64340;48.534;-3.036;2022-10-17T00:07:14;1.48;;;0.70;;
75718;SDS011;64340;48.534;-3.036;2022-10-17T00:09:43;1.27;;;0.60;;
75718;SDS011;64340;48.534;-3.036;2022-10-17T00:12:08;1.77;;;0.75;;
75718;SDS011;64340;48.534;-3.036;2022-10-17T00:14:35;1.35;;;0.57;;
75718;SDS011;64340;48.534;-3.036;2022-10-17T00:17:00;1.38;;;0.60;;
75718;SDS011;64340;48.534;-3.036;2022-10-17T00:19:26;1.40;;;0.70;;
75718;SDS011;64340;48.534;-3.036;2022-10-17T00:21:52;1.73;;;0.70;;
75718;SDS011;64340;48.534;-3.036;2022-10-17T00:24:18;1.55;;;0.70;;
75718;SDS011;64340;48.534;-3.036;2022-10-17T00:26:44;1.85;;;0.77;;
75718;SDS011;64340;48.534;-3.036;2022-10-17T00:29:09;1.75;;;0.88;;
75718;SDS011;64340;48.534;-3.036;2022-10-17T00:31:35;1.17;;;0.60;;
75718;SDS011;64340;48.534;-3.036;2022-10-17T00:34:01;1.35;;;0.68;;
75718;SDS011;64340;48.534;-3.036;2022-10-17T00:36:26;1.13;;;0.50;;
75718;SDS011;64340;48.534;-3.036;2022-10-17T00:38:53;1.38;;;0.65;;
75718;SDS011;64340;48.534;-3.036;2022-10-17T00:41:23;1.05;;;0.50;;
75718;SDS011;64340;48.534;-3.036;2022-10-17T00:46:31;1.40;;;0.60;;
75718;SDS011;64340;48.534;-3.036;2022-10-17T00:49:09;1.60;;;0.70;;
75718;SDS011;64340;48.534;-3.036;2022-10-17T00:51:44;1.55;;;0.68;;
75718;SDS011;64340;48.534;-3.036;2022-10-17T00:54:14;1.00;;;0.57;;
75718;SDS011;64340;48.534;-3.036;2022-10-17T00:56:43;0.88;;;0.50;;
75718;SDS011;64340;48.534;-3.036;2022-10-17T00:59:11;1.58;;;0.70;;
75718;SDS011;64340;48.534;-3.036;2022-10-17T01:01:41;1.42;;;0.82;;
75718;SDS011;64340;48.534;-3.036;2022-10-17T01:04:11;1.73;;;0.88;;
75718;SDS011;64340;48.534;-3.036;2022-10-17T01:06:37;1.73;;;0.75;;
75718;SDS011;64340;48.534;-3.036;2022-10-17T01:09:03;1.40;;;0.80;;
75718;SDS011;64340;48.534;-3.036;2022-10-17T01:11:35;1.50;;;0.50;;
75718;SDS011;64340;48.534;-3.036;2022-10-17T01:14:52;1.58;;;0.60;;
75718;SDS011;64340;48.534;-3.036;2022-10-17T01:17:19;1.60;;;0.70;;
75718;SDS011;64340;48.534;-3.036;2022-10-17T01:22:49;1.00;;;0.55;;
75718;SDS011;64340;48.534;-3.036;2022-10-17T01:28:53;1.80;;;0.50;;
75718;SDS011;64340;48.534;-3.036;2022-10-17T01:31:16;1.20;;;0.60;;
75718;SDS011;64340;48.534;-3.036;2022-10-17T01:33:52;1.52;;;0.80;;
75718;SDS011;64340;48.534;-3.036;2022-10-17T01:36:31;1.00;;;0.50;;
75718;SDS011;64340;48.534;-3.036;2022-10-17T01:42:06;1.38;;;0.50;;
75718;SDS011;64340;48.534;-3.036;2022-10-17T01:47:20;1.30;;;0.73;;
75718;SDS011;64340;48.534;-3.036;2022-10-17T01:49:52;0.80;;;0.55;;
75718;SDS011;64340;48.534;-3.036;2022-10-17T01:52:24;0.98;;;0.60;;
75718;SDS011;64340;48.534;-3.036;2022-10-17T01:54:55;0.90;;;0.50;;
75718;SDS011;64340;48.534;-3.036;2022-10-17T01:57:39;1.63;;;0.68;;
75718;SDS011;64340;48.534;-3.036;2022-10-17T02:00:10;1.40;;;0.50;;
75718;SDS011;64340;48.534;-3.036;2022-10-17T02:02:41;1.30;;;0.57;;
75718;SDS011;64340;48.534;-3.036;2022-10-17T02:05:09;1.08;;;0.50;;
75718;SDS011;64340;48.534;-3.036;2022-10-17T02:07:35;1.20;;;0.60;;
75718;SDS011;64340;48.534;-3.036;2022-10-17T02:10:02;1.20;;;0.60;;
75718;SDS011;64340;48.534;-3.036;2022-10-17T02:21:12;1.40;;;0.70;;
75718;SDS011;64340;48.534;-3.036;2022-10-17T02:26:32;1.30;;;0.47;;
75718;SDS011;64340;48.534;-3.036;2022-10-17T02:31:49;1.33;;;0.63;;
75718;SDS011;64340;48.534;-3.036;2022-10-17T02:39:39;1.23;;;0.60;;
75718;SDS011;64340;48.534;-3.036;2022-10-17T02:42:08;1.65;;;0.70;;
75718;SDS011;64340;48.534;-3.036;2022-10-17T02:44:37;1.10;;;0.50;;
75718;SDS011;64340;48.534;-3.036;2022-10-17T02:50:26;0.95;;;0.47;;
75718;SDS011;64340;48.534;-3.036;2022-10-17T02:52:59;1.20;;;0.47;;
75718;SDS011;64340;48.534;-3.036;2022-10-17T02:55:30;1.48;;;0.70;;
75718;SDS011;64340;48.534;-3.036;2022-10-17T02:58:15;0.90;;;0.43;;
75718;SDS011;64340;48.534;-3.036;2022-10-17T03:00:45;0.93;;;0.47;;
75718;SDS011;64340;48.534;-3.036;2022-10-17T03:03:19;0.90;;;0.50;;
75718;SDS011;64340;48.534;-3.036;2022-10-17T03:05:50;1.00;;;0.40;;
75718;SDS011;64340;48.534;-3.036;2022-10-17T03:08:16;1.25;;;0.68;;
75718;SDS011;64340;48.534;-3.036;2022-10-17T03:10:42;1.27;;;0.50;;
75718;SDS011;64340;48.534;-3.036;2022-10-17T03:13:08;0.90;;;0.50;;
75718;SDS011;64340;48.534;-3.036;2022-10-17T03:15:34;1.77;;;0.68;;
75718;SDS011;64340;48.534;-3.036;2022-10-17T03:18:00;1.65;;;0.60;;
75718;SDS011;64340;48.534;-3.036;2022-10-17T03:20:26;1.23;;;0.60;;
75718;SDS011;64340;48.534;-3.036;2022-10-17T03:22:51;0.77;;;0.40;;
75718;SDS011;64340;48.534;-3.036;2022-10-17T03:25:17;0.52;;;0.40;;
75718;SDS011;64340;48.534;-3.036;2022-10-17T03:27:43;1.27;;;0.52;;
75718;SDS011;64340;48.534;-3.036;2022-10-17T03:30:09;1.30;;;0.52;;
75718;SDS011;64340;48.534;-3.036;2022-10-17T03:32:35;0.98;;;0.43;;
75718;SDS011;64340;48.534;-3.036;2022-10-17T03:35:00;1.05;;;0.50;;
75718;SDS011;64340;48.534;-3.036;2022-10-17T03:37:26;1.08;;;0.60;;
75718;SDS011;64340;48.534;-3.036;2022-10-17T03:39:52;1.98;;;0.50;;
75718;SDS011;64340;48.534;-3.036;2022-10-17T03:42:18;1.48;;;0.60;;
75718;SDS011;64340;48.534;-3.036;2022-10-17T03:44:43;1.15;;;0.47;;
75718;SDS011;64340;48.534;-3.036;2022-10-17T03:47:09;0.95;;;0.57;;
75718;SDS011;64340;48.534;-3.036;2022-10-17T03:49:35;1.00;;;0.50;;
75718;SDS011;64340;48.534;-3.036;2022-10-17T03:52:01;1.13;;;0.50;;
75718;SDS011;64340;48.534;-3.036;2022-10-17T03:54:26;1.00;;;0.50;;
75718;SDS011;64340;48.534;-3.036;2022-10-17T03:56:52;1.05;;;0.47;;
75718;SDS011;64340;48.534;-3.036;2022-10-17T03:59:18;0.90;;;0.60;;
75718;SDS011;64340;48.534;-3.036;2022-10-17T04:01:44;1.85;;;0.50;;
75718;SDS011;64340;48.534;-3.036;2022-10-17T04:04:10;1.02;;;0.50;;
75718;SDS011;64340;48.534;-3.036;2022-10-17T04:06:36;1.50;;;0.60;;
75718;SDS011;64340;48.534;-3.036;2022-10-17T04:09:03;1.02;;;0.50;;
75718;SDS011;64340;48.534;-3.036;2022-10-17T04:11:30;0.88;;;0.40;;
75718;SDS011;64340;48.534;-3.036;2022-10-17T04:13:56;1.17;;;0.60;;
75718;SDS011;64340;48.534;-3.036;2022-10-17T04:16:23;1.40;;;0.70;;
75718;SDS011;64340;48.534;-3.036;2022-10-17T04:18:53;0.93;;;0.50;;
75718;SDS011;64340;48.534;-3.036;2022-10-17T04:21:20;1.33;;;0.60;;
75718;SDS011;64340;48.534;-3.036;2022-10-17T04:23:47;1.00;;;0.40;;
75718;SDS011;64340;48.534;-3.036;2022-10-17T04:28:42;0.90;;;0.45;;
75718;SDS011;64340;48.534;-3.036;2022-10-17T04:31:08;1.35;;;0.60;;
75718;SDS011;64340;48.534;-3.036;2022-10-17T04:33:39;1.00;;;0.40;;
75718;SDS011;64340;48.534;-3.036;2022-10-17T04:36:06;1.02;;;0.60;;
75718;SDS011;64340;48.534;-3.036;2022-10-17T04:38:37;0.93;;;0.50;;
75718;SDS011;64340;48.534;-3.036;2022-10-17T04:41:04;1.65;;;0.70;;
75718;SDS011;64340;48.534;-3.036;2022-10-17T04:43:32;1.10;;;0.50;;
75718;SDS011;64340;48.534;-3.036;2022-10-17T04:46:00;1.65;;;0.52;;
75718;SDS011;64340;48.534;-3.036;2022-10-17T04:48:28;1.27;;;0.55;;
75718;SDS011;64340;48.534;-3.036;2022-10-17T04:50:54;1.20;;;0.60;;
75718;SDS011;64340;48.534;-3.036;2022-10-17T04:53:22;1.08;;;0.52;;
75718;SDS011;64340;48.534;-3.036;2022-10-17T04:55:48;1.15;;;0.45;;
75718;SDS011;64340;48.534;-3.036;2022-10-17T04:58:14;0.77;;;0.32;;
75718;SDS011;64340;48.534;-3.036;2022-10-17T05:00:40;1.90;;;0.65;;
75718;SDS011;64340;48.534;-3.036;2022-10-17T05:03:06;1.63;;;0.60;;
75718;SDS011;64340;48.534;-3.036;2022-10-17T05:05:32;1.10;;;0.60;;
75718;SDS011;64340;48.534;-3.036;2022-10-17T05:08:01;1.27;;;0.52;;
75718;SDS011;64340;48.534;-3.036;2022-10-17T05:10:26;1.40;;;0.60;;
75718;SDS011;64340;48.534;-3.036;2022-10-17T05:12:52;0.90;;;0.50;;
75718;SDS011;64340;48.534;-3.036;2022-10-17T05:15:18;0.98;;;0.52;;
75718;SDS011;64340;48.534;-3.036;2022-10-17T05:17:44;0.93;;;0.60;;
75718;SDS011;64340;48.534;-3.036;2022-10-17T05:20:10;1.45;;;0.60;;
75718;SDS011;64340;48.534;-3.036;2022-10-17T05:22:36;1.65;;;0.50;;
75718;SDS011;64340;48.534;-3.036;2022-10-17T05:25:01;1.33;;;0.50;;
75718;SDS011;64340;48.534;-3.036;2022-10-17T05:27:27;1.73;;;0.52;;
75718;SDS011;64340;48.534;-3.036;2022-10-17T05:29:53;1.38;;;0.57;;
75718;SDS011;64340;48.534;-3.036;2022-10-17T05:32:19;1.30;;;0.70;;
75718;SDS011;64340;48.534;-3.036;2022-10-17T05:34:44;1.23;;;0.52;;
75718;SDS011;64340;48.534;-3.036;2022-10-17T05:37:10;1.40;;;0.63;;
75718;SDS011;64340;48.534;-3.036;2022-10-17T05:39:36;1.80;;;0.55;;
75718;SDS011;64340;48.534;-3.036;2022-10-17T05:42:01;1.90;;;0.80;;
75718;SDS011;64340;48.534;-3.036;2022-10-17T05:44:27;1.13;;;0.43;;
75718;SDS011;64340;48.534;-3.036;2022-10-17T05:46:53;1.10;;;0.50;;
75718;SDS011;64340;48.534;-3.036;2022-10-17T05:49:19;1.67;;;0.70;;
75718;SDS011;64340;48.534;-3.036;2022-10-17T05:51:44;0.93;;;0.50;;
75718;SDS011;64340;48.534;-3.036;2022-10-17T05:54:10;0.85;;;0.50;;
75718;SDS011;64340;48.534;-3.036;2022-10-17T05:56:36;1.83;;;0.50;;
75718;SDS011;64340;48.534;-3.036;2022-10-17T05:59:02;1.00;;;0.63;;
75718;SDS011;64340;48.534;-3.036;2022-10-17T06:01:28;2.40;;;0.70;;
75718;SDS011;64340;48.534;-3.036;2022-10-17T06:03:54;1.30;;;0.60;;
75718;SDS011;64340;48.534;-3.036;2022-10-17T06:06:20;1.05;;;0.50;;
75718;SDS011;64340;48.534;-3.036;2022-10-17T06:08:46;1.67;;;0.57;;
75718;SDS011;64340;48.534;-3.036;2022-10-17T06:11:12;0.93;;;0.47;;
75718;SDS011;64340;48.534;-3.036;2022-10-17T06:13:38;2.63;;;0.80;;
75718;SDS011;64340;48.534;-3.036;2022-10-17T06:16:04;1.77;;;0.65;;
75718;SDS011;64340;48.534;-3.036;2022-10-17T06:18:31;1.67;;;0.65;;
75718;SDS011;64340;48.534;-3.036;2022-10-17T06:21:01;2.08;;;0.70;;
75718;SDS011;64340;48.534;-3.036;2022-10-17T06:23:28;1.52;;;0.50;;
75718;SDS011;64340;48.534;-3.036;2022-10-17T06:25:56;1.77;;;0.80;;
75718;SDS011;64340;48.534;-3.036;2022-10-17T06:28:23;1.00;;;0.40;;
75718;SDS011;64340;48.534;-3.036;2022-10-17T06:30:49;1.33;;;0.70;;
75718;SDS011;64340;48.534;-3.036;2022-10-17T06:33:15;1.45;;;0.50;;
75718;SDS011;64340;48.534;-3.036;2022-10-17T06:35:42;0.90;;;0.52;;
75718;SDS011;64340;48.534;-3.036;2022-10-17T06:38:08;1.40;;;0.70;;
75718;SDS011;64340;48.534;-3.036;2022-10-17T06:40:34;1.50;;;0.60;;
75718;SDS011;64340;48.534;-3.036;2022-10-17T06:43:00;1.17;;;0.60;;
75718;SDS011;64340;48.534;-3.036;2022-10-17T06:45:25;1.55;;;0.70;;
75718;SDS011;64340;48.534;-3.036;2022-10-17T06:47:51;1.52;;;0.50;;
75718;SDS011;64340;48.534;-3.036;2022-10-17T06:50:17;1.38;;;0.52;;
75718;SDS011;64340;48.534;-3.036;2022-10-17T06:52:43;1.58;;;0.70;;
75718;SDS011;64340;48.534;-3.036;2022-10-17T06:55:08;1.20;;;0.60;;
75718;SDS011;64340;48.534;-3.036;2022-10-17T06:57:34;2.28;;;0.80;;
75718;SDS011;64340;48.534;-3.036;2022-10-17T07:00:00;1.17;;;0.50;;
75718;SDS011;64340;48.534;-3.036;2022-10-17T07:02:26;1.02;;;0.50;;
75718;SDS011;64340;48.534;-3.036;2022-10-17T07:04:52;1.13;;;0.50;;
75718;SDS011;64340;48.534;-3.036;2022-10-17T07:07:18;1.55;;;0.60;;
75718;SDS011;64340;48.534;-3.036;2022-10-17T07:09:43;1.60;;;0.75;;
75718;SDS011;64340;48.534;-3.036;2022-10-17T07:12:09;1.77;;;0.55;;
75718;SDS011;64340;48.534;-3.036;2022-10-17T07:14:36;1.75;;;0.80;;
75718;SDS011;64340;48.534;-3.036;2022-10-17T07:17:02;2.60;;;0.70;;
75718;SDS011;64340;48.534;-3.036;2022-10-17T07:19:28;2.38;;;0.57;;
75718;SDS011;64340;48.534;-3.036;2022-10-17T07:21:54;1.42;;;0.63;;
75718;SDS011;64340;48.534;-3.036;2022-10-17T07:24:20;1.55;;;0.50;;
75718;SDS011;64340;48.534;-3.036;2022-10-17T07:26:45;2.58;;;0.70;;
75718;SDS011;64340;48.534;-3.036;2022-10-17T07:29:12;1.63;;;0.60;;
75718;SDS011;64340;48.534;-3.036;2022-10-17T07:31:37;1.70;;;0.57;;
75718;SDS011;64340;48.534;-3.036;2022-10-17T07:34:03;1.45;;;0.60;;
75718;SDS011;64340;48.534;-3.036;2022-10-17T07:36:29;1.30;;;0.68;;
75718;SDS011;64340;48.534;-3.036;2022-10-17T07:38:55;1.00;;;0.40;;
75718;SDS011;64340;48.534;-3.036;2022-10-17T07:41:20;2.13;;;0.50;;
75718;SDS011;64340;48.534;-3.036;2022-10-17T07:43:46;1.23;;;0.52;;
75718;SDS011;64340;48.534;-3.036;2022-10-17T07:46:12;2.88;;;0.57;;
75718;SDS011;64340;48.534;-3.036;2022-10-17T07:48:38;1.23;;;0.50;;
75718;SDS011;64340;48.534;-3.036;2022-10-17T07:51:05;1.65;;;0.77;;
75718;SDS011;64340;48.534;-3.036;2022-10-17T07:53:33;1.73;;;0.63;;
75718;SDS011;64340;48.534;-3.036;2022-10-17T07:56:02;1.52;;;0.70;;
75718;SDS011;64340;48.534;-3.036;2022-10-17T07:58:30;1.42;;;0.50;;
75718;SDS011;64340;48.534;-3.036;2022-10-17T08:00:59;1.23;;;0.60;;
75718;SDS011;64340;48.534;-3.036;2022-10-17T08:03:26;1.40;;;0.57;;
75718;SDS011;64340;48.534;-3.036;2022-10-17T08:05:55;1.00;;;0.50;;
75718;SDS011;64340;48.534;-3.036;2022-10-17T08:08:22;2.78;;;0.80;;
75718;SDS011;64340;48.534;-3.036;2022-10-17T08:10:48;3.70;;;0.68;;
75718;SDS011;64340;48.534;-3.036;2022-10-17T08:13:14;1.33;;;0.65;;
75718;SDS011;64340;48.534;-3.036;2022-10-17T08:15:40;1.08;;;0.50;;
75718;SDS011;64340;48.534;-3.036;2022-10-17T08:18:06;1.33;;;0.47;;
75718;SDS011;64340;48.534;-3.036;2022-10-17T08:20:31;1.92;;;0.52;;
75718;SDS011;64340;48.534;-3.036;2022-10-17T08:22:57;0.68;;;0.30;;
75718;SDS011;64340;48.534;-3.036;2022-10-17T08:25:23;0.90;;;0.45;;
75718;SDS011;64340;48.534;-3.036;2022-10-17T08:27:49;1.75;;;0.60;;
75718;SDS011;64340;48.534;-3.036;2022-10-17T08:30:15;1.13;;;0.47;;
75718;SDS011;64340;48.534;-3.036;2022-10-17T08:32:42;1.52;;;0.50;;
75718;SDS011;64340;48.534;-3.036;2022-10-17T08:35:08;0.93;;;0.50;;
75718;SDS011;64340;48.534;-3.036;2022-10-17T08:37:34;1.23;;;0.50;;
75718;SDS011;64340;48.534;-3.036;2022-10-17T08:40:00;2.45;;;0.82;;
75718;SDS011;64340;48.534;-3.036;2022-10-17T08:42:29;0.77;;;0.40;;
75718;SDS011;64340;48.534;-3.036;2022-10-17T08:47:34;1.15;;;0.50;;
75718;SDS011;64340;48.534;-3.036;2022-10-17T08:50:04;0.93;;;0.43;;
75718;SDS011;64340;48.534;-3.036;2022-10-17T08:58:01;1.02;;;0.40;;
75718;SDS011;64340;48.534;-3.036;2022-10-17T09:00:27;1.30;;;0.55;;
75718;SDS011;64340;48.534;-3.036;2022-10-17T09:06:01;1.52;;;0.70;;
75718;SDS011;64340;48.534;-3.036;2022-10-17T09:08:55;1.45;;;0.50;;
75718;SDS011;64340;48.534;-3.036;2022-10-17T09:14:22;0.82;;;0.45;;
75718;SDS011;64340;48.534;-3.036;2022-10-17T09:20:19;0.90;;;0.50;;
75718;SDS011;64340;48.534;-3.036;2022-10-17T09:25:20;1.50;;;0.40;;
75718;SDS011;64340;48.534;-3.036;2022-10-17T09:27:48;1.52;;;0.50;;
75718;SDS011;64340;48.534;-3.036;2022-10-17T09:32:57;1.50;;;0.60;;
75718;SDS011;64340;48.534;-3.036;2022-10-17T09:35:23;0.90;;;0.40;;
75718;SDS011;64340;48.534;-3.036;2022-10-17T09:37:49;0.45;;;0.30;;
75718;SDS011;64340;48.534;-3.036;2022-10-17T09:40:34;0.93;;;0.40;;
75718;SDS011;64340;48.534;-3.036;2022-10-17T09:43:01;1.20;;;0.50;;
75718;SDS011;64340;48.534;-3.036;2022-10-17T09:45:31;1.02;;;0.50;;
75718;SDS011;64340;48.534;-3.036;2022-10-17T09:50:34;0.88;;;0.45;;
75718;SDS011;64340;48.534;-3.036;2022-10-17T09:53:14;1.35;;;0.50;;
75718;SDS011;64340;48.534;-3.036;2022-10-17T09:55:46;1.25;;;0.50;;
75718;SDS011;64340;48.534;-3.036;2022-10-17T09:58:14;1.20;;;0.50;;
75718;SDS011;64340;48.534;-3.036;2022-10-17T10:00:42;1.52;;;0.57;;
75718;SDS011;64340;48.534;-3.036;2022-10-17T10:03:10;1.30;;;0.55;;
75718;SDS011;64340;48.534;-3.036;2022-10-17T10:06:04;0.68;;;0.30;;
75718;SDS011;64340;48.534;-3.036;2022-10-17T10:08:47;1.13;;;0.50;;
75718;SDS011;64340;48.534;-3.036;2022-10-17T10:11:18;1.25;;;0.40;;
75718;SDS011;64340;48.534;-3.036;2022-10-17T10:13:49;1.00;;;0.50;;
75718;SDS011;64340;48.534;-3.036;2022-10-17T10:16:20;1.42;;;0.43;;
75718;SDS011;64340;48.534;-3.036;2022-10-17T10:18:56;0.82;;;0.45;;
75718;SDS011;64340;48.534;-3.036;2022-10-17T10:21:23;1.08;;;0.38;;
75718;SDS011;64340;48.534;-3.036;2022-10-17T10:29:18;0.60;;;0.40;;
75718;SDS011;64340;48.534;-3.036;2022-10-17T10:32:24;1.63;;;0.50;;
75718;SDS011;64340;48.534;-3.036;2022-10-17T10:37:46;1.15;;;0.60;;
75718;SDS011;64340;48.534;-3.036;2022-10-17T10:40:21;1.50;;;0.77;;
75718;SDS011;64340;48.534;-3.036;2022-10-17T10:42:54;1.02;;;0.50;;
75718;SDS011;64340;48.534;-3.036;2022-10-17T10:45:24;0.95;;;0.40;;
75718;SDS011;64340;48.534;-3.036;2022-10-17T10:55:44;2.10;;;0.57;;
75718;SDS011;64340;48.534;-3.036;2022-10-17T10:58:35;1.35;;;0.57;;
75718;SDS011;64340;48.534;-3.036;2022-10-17T11:03:59;1.17;;;0.70;;
75718;SDS011;64340;48.534;-3.036;2022-10-17T11:06:45;1.17;;;0.40;;
75718;SDS011;64340;48.534;-3.036;2022-10-17T11:11:53;1.00;;;0.50;;
75718;SDS011;64340;48.534;-3.036;2022-10-17T11:17:02;1.20;;;0.40;;
75718;SDS011;64340;48.534;-3.036;2022-10-17T11:19:34;1.30;;;0.47;;
75718;SDS011;64340;48.534;-3.036;2022-10-17T11:27:45;1.35;;;0.60;;
75718;SDS011;64340;48.534;-3.036;2022-10-17T11:30:14;1.00;;;0.40;;
75718;SDS011;64340;48.534;-3.036;2022-10-17T11:32:57;1.20;;;0.50;;
75718;SDS011;64340;48.534;-3.036;2022-10-17T11:35:33;1.17;;;0.60;;
75718;SDS011;64340;48.534;-3.036;2022-10-17T11:40:41;1.85;;;0.77;;
75718;SDS011;64340;48.534;-3.036;2022-10-17T11:43:14;1.38;;;0.50;;
75718;SDS011;64340;48.534;-3.036;2022-10-17T11:46:06;1.08;;;0.47;;
75718;SDS011;64340;48.534;-3.036;2022-10-17T11:48:54;2.05;;;0.50;;
75718;SDS011;64340;48.534;-3.036;2022-10-17T11:51:23;0.95;;;0.50;;
75718;SDS011;64340;48.534;-3.036;2022-10-17T12:00:16;0.88;;;0.40;;
75718;SDS011;64340;48.534;-3.036;2022-10-17T12:15:55;0.85;;;0.40;;
75718;SDS011;64340;48.534;-3.036;2022-10-17T12:18:23;0.68;;;0.30;;
75718;SDS011;64340;48.534;-3.036;2022-10-17T12:20:59;1.05;;;0.50;;
75718;SDS011;64340;48.534;-3.036;2022-10-17T12:23:29;0.90;;;0.40;;
75718;SDS011;64340;48.534;-3.036;2022-10-17T12:25:59;0.95;;;0.40;;
75718;SDS011;64340;48.534;-3.036;2022-10-17T12:33:31;1.45;;;0.60;;
75718;SDS011;64340;48.534;-3.036;2022-10-17T12:46:42;1.35;;;0.60;;
75718;SDS011;64340;48.534;-3.036;2022-10-17T12:54:59;1.02;;;0.43;;
75718;SDS011;64340;48.534;-3.036;2022-10-17T12:57:31;1.95;;;0.45;;
75718;SDS011;64340;48.534;-3.036;2022-10-17T13:00:13;1.67;;;0.50;;
75718;SDS011;64340;48.534;-3.036;2022-10-17T13:02:43;0.60;;;0.50;;
75718;SDS011;64340;48.534;-3.036;2022-10-17T13:05:14;1.30;;;0.60;;
75718;SDS011;64340;48.534;-3.036;2022-10-17T13:07:46;1.02;;;0.40;;
75718;SDS011;64340;48.534;-3.036;2022-10-17T13:10:18;0.75;;;0.40;;
75718;SDS011;64340;48.534;-3.036;2022-10-17T13:12:46;0.95;;;0.50;;
75718;SDS011;64340;48.534;-3.036;2022-10-17T13:15:15;1.27;;;0.40;;
75718;SDS011;64340;48.534;-3.036;2022-10-17T13:17:43;1.38;;;0.60;;
75718;SDS011;64340;48.534;-3.036;2022-10-17T13:20:19;1.15;;;0.43;;
75718;SDS011;64340;48.534;-3.036;2022-10-17T13:22:49;0.85;;;0.43;;
75718;SDS011;64340;48.534;-3.036;2022-10-17T13:25:16;1.02;;;0.40;;
75718;SDS011;64340;48.534;-3.036;2022-10-17T13:27:43;1.33;;;0.40;;
75718;SDS011;64340;48.534;-3.036;2022-10-17T13:30:20;0.77;;;0.43;;
75718;SDS011;64340;48.534;-3.036;2022-10-17T13:32:51;1.30;;;0.32;;
75718;SDS011;64340;48.534;-3.036;2022-10-17T13:35:22;1.08;;;0.40;;
75718;SDS011;64340;48.534;-3.036;2022-10-17T13:37:54;0.60;;;0.35;;
75718;SDS011;64340;48.534;-3.036;2022-10-17T13:40:24;1.13;;;0.50;;
75718;SDS011;64340;48.534;-3.036;2022-10-17T13:42:52;0.70;;;0.40;;
75718;SDS011;64340;48.534;-3.036;2022-10-17T13:47:59;1.10;;;0.40;;
75718;SDS011;64340;48.534;-3.036;2022-10-17T13:50:39;1.65;;;0.60;;
75718;SDS011;64340;48.534;-3.036;2022-10-17T13:53:16;1.10;;;0.50;;
75718;SDS011;64340;48.534;-3.036;2022-10-17T13:55:58;1.73;;;0.50;;
75718;SDS011;64340;48.534;-3.036;2022-10-17T13:58:28;1.05;;;0.40;;
75718;SDS011;64340;48.534;-3.036;2022-10-17T14:01:04;1.83;;;0.50;;
75718;SDS011;64340;48.534;-3.036;2022-10-17T14:03:31;1.35;;;0.47;;
75718;SDS011;64340;48.534;-3.036;2022-10-17T14:08:31;1.10;;;0.50;;
75718;SDS011;64340;48.534;-3.036;2022-10-17T14:10:58;1.65;;;0.50;;
75718;SDS011;64340;48.534;-3.036;2022-10-17T14:13:26;1.17;;;0.40;;
75718;SDS011;64340;48.534;-3.036;2022-10-17T14:15:55;2.13;;;0.70;;
75718;SDS011;64340;48.534;-3.036;2022-10-17T14:18:33;0.68;;;0.40;;
75718;SDS011;64340;48.534;-3.036;2022-10-17T14:21:02;1.08;;;0.40;;
75718;SDS011;64340;48.534;-3.036;2022-10-17T14:26:12;1.55;;;0.38;;
75718;SDS011;64340;48.534;-3.036;2022-10-17T14:28:43;1.27;;;0.43;;
75718;SDS011;64340;48.534;-3.036;2022-10-17T14:31:12;0.93;;;0.40;;
75718;SDS011;64340;48.534;-3.036;2022-10-17T14:33:53;2.33;;;0.82;;
75718;SDS011;64340;48.534;-3.036;2022-10-17T14:36:28;0.95;;;0.40;;
75718;SDS011;64340;48.534;-3.036;2022-10-17T14:38:56;0.95;;;0.35;;
75718;SDS011;64340;48.534;-3.036;2022-10-17T14:41:24;1.38;;;0.50;;
75718;SDS011;64340;48.534;-3.036;2022-10-17T14:43:59;0.90;;;0.40;;
75718;SDS011;64340;48.534;-3.036;2022-10-17T14:46:28;0.80;;;0.50;;
75718;SDS011;64340;48.534;-3.036;2022-10-17T14:49:05;1.05;;;0.40;;
75718;SDS011;64340;48.534;-3.036;2022-10-17T14:51:39;1.15;;;0.60;;
75718;SDS011;64340;48.534;-3.036;2022-10-17T14:56:51;1.45;;;0.47;;
75718;SDS011;64340;48.534;-3.036;2022-10-17T14:59:18;1.63;;;0.45;;
75718;SDS011;64340;48.534;-3.036;2022-10-17T15:01:48;0.85;;;0.40;;
75718;SDS011;64340;48.534;-3.036;2022-10-17T15:04:15;1.38;;;0.50;;
75718;SDS011;64340;48.534;-3.036;2022-10-17T15:06:41;0.75;;;0.30;;
75718;SDS011;64340;48.534;-3.036;2022-10-17T15:09:08;1.58;;;0.40;;
75718;SDS011;64340;48.534;-3.036;2022-10-17T15:11:35;2.10;;;0.60;;
75718;SDS011;64340;48.534;-3.036;2022-10-17T15:14:01;1.15;;;0.38;;
75718;SDS011;64340;48.534;-3.036;2022-10-17T15:16:29;0.77;;;0.30;;
75718;SDS011;64340;48.534;-3.036;2022-10-17T15:18:57;1.27;;;0.45;;
75718;SDS011;64340;48.534;-3.036;2022-10-17T15:21:23;1.38;;;0.40;;
75718;SDS011;64340;48.534;-3.036;2022-10-17T15:23:50;1.17;;;0.43;;
75718;SDS011;64340;48.534;-3.036;2022-10-17T15:28:44;1.40;;;0.60;;
75718;SDS011;64340;48.534;-3.036;2022-10-17T15:31:12;0.25;;;0.20;;
75718;SDS011;64340;48.534;-3.036;2022-10-17T15:33:39;1.65;;;0.50;;
75718;SDS011;64340;48.534;-3.036;2022-10-17T15:36:19;1.45;;;0.75;;
75718;SDS011;64340;48.534;-3.036;2022-10-17T15:38:51;1.00;;;0.50;;
75718;SDS011;64340;48.534;-3.036;2022-10-17T15:41:20;0.77;;;0.40;;
75718;SDS011;64340;48.534;-3.036;2022-10-17T15:43:47;0.60;;;0.40;;
75718;SDS011;64340;48.534;-3.036;2022-10-17T15:46:16;1.27;;;0.40;;
75718;SDS011;64340;48.534;-3.036;2022-10-17T15:48:50;1.30;;;0.50;;
75718;SDS011;64340;48.534;-3.036;2022-10-17T15:51:17;2.03;;;0.55;;
75718;SDS011;64340;48.534;-3.036;2022-10-17T15:53:43;3.60;;;0.73;;
75718;SDS011;64340;48.534;-3.036;2022-10-17T15:56:22;3.80;;;0.80;;
75718;SDS011;64340;48.534;-3.036;2022-10-17T15:58:48;1.98;;;0.63;;
75718;SDS011;64340;48.534;-3.036;2022-10-17T16:01:17;3.85;;;0.88;;
75718;SDS011;64340;48.534;-3.036;2022-10-17T16:03:46;5.88;;;1.00;;
75718;SDS011;64340;48.534;-3.036;2022-10-17T16:06:14;3.97;;;0.90;;
75718;SDS011;64340;48.534;-3.036;2022-10-17T16:08:41;2.70;;;0.70;;
75718;SDS011;64340;48.534;-3.036;2022-10-17T16:11:10;2.95;;;0.70;;
75718;SDS011;64340;48.534;-3.036;2022-10-17T16:13:51;3.47;;;0.80;;
75718;SDS011;64340;48.534;-3.036;2022-10-17T16:16:21;4.40;;;0.90;;
75718;SDS011;64340;48.534;-3.036;2022-10-17T18:03:46;4.78;;;2.10;;
75718;SDS011;64340;48.534;-3.036;2022-10-17T18:06:13;3.85;;;1.35;;
75718;SDS011;64340;48.534;-3.036;2022-10-17T18:08:43;5.20;;;2.47;;
75718;SDS011;64340;48.534;-3.036;2022-10-17T18:11:09;5.85;;;2.20;;
75718;SDS011;64340;48.534;-3.036;2022-10-17T18:13:36;4.18;;;2.03;;
75718;SDS011;64340;48.534;-3.036;2022-10-17T18:16:02;5.65;;;2.40;;
75718;SDS011;64340;48.534;-3.036;2022-10-17T18:18:36;4.95;;;2.40;;
75718;SDS011;64340;48.534;-3.036;2022-10-17T18:21:03;7.55;;;2.90;;
75718;SDS011;64340;48.534;-3.036;2022-10-17T18:23:29;10.98;;;2.88;;
75718;SDS011;64340;48.534;-3.036;2022-10-17T18:25:55;6.20;;;2.65;;
75718;SDS011;64340;48.534;-3.036;2022-10-17T18:28:22;6.35;;;2.30;;
75718;SDS011;64340;48.534;-3.036;2022-10-17T18:30:49;4.28;;;2.30;;
75718;SDS011;64340;48.534;-3.036;2022-10-17T18:33:15;5.68;;;2.35;;
75718;SDS011;64340;48.534;-3.036;2022-10-17T18:35:41;4.75;;;2.20;;
75718;SDS011;64340;48.534;-3.036;2022-10-17T18:38:07;6.82;;;2.15;;
75718;SDS011;64340;48.534;-3.036;2022-10-17T18:40:32;7.35;;;2.42;;
75718;SDS011;64340;48.534;-3.036;2022-10-17T18:43:01;5.20;;;2.30;;
75718;SDS011;64340;48.534;-3.036;2022-10-17T18:45:27;5.00;;;2.42;;
75718;SDS011;64340;48.534;-3.036;2022-10-17T18:47:53;6.75;;;2.03;;
75718;SDS011;64340;48.534;-3.036;2022-10-17T18:50:19;6.30;;;2.20;;
75718;SDS011;64340;48.534;-3.036;2022-10-17T18:52:46;5.85;;;2.20;;
75718;SDS011;64340;48.534;-3.036;2022-10-17T18:55:14;4.88;;;2.20;;
75718;SDS011;64340;48.534;-3.036;2022-10-17T18:57:47;3.92;;;2.08;;
75718;SDS011;64340;48.534;-3.036;2022-10-17T19:00:14;4.78;;;2.03;;
75718;SDS011;64340;48.534;-3.036;2022-10-17T19:02:41;4.43;;;1.98;;